sensor_id;sensor_type;location;lat;lon;timestamp;pressure;altitude;pressure_sealevel;temperature;humidity
35551;BME280;21655;46.056;13.616;2023-03-01T00:01:24;100933.63;;;6.28;95.93
35551;BME280;21655;46.056;13.616;2023-03-01T00:03:51;100899.69;;;6.18;98.59
35551;BME280;21655;46.056;13.616;2023-03-01T00:06:17;100912.16;;;6.22;98.31
35551;BME280;21655;46.056;13.616;2023-03-01T00:08:43;100939.28;;;6.27;97.18
35551;BME280;21655;46.056;13.616;2023-03-01T00:11:23;100924.91;;;6.23;97.70
35551;BME280;21655;46.056;13.616;2023-03-01T00:13:51;100938.34;;;6.17;97.46
35551;BME280;21655;46.056;13.616;2023-03-01T00:16:22;100940.38;;;6.15;97.42
35551;BME280;21655;46.056;13.616;2023-03-01T00:18:48;100934.72;;;6.07;99.69
35551;BME280;21655;46.056;13.616;2023-03-01T00:21:14;100941.06;;;6.07;98.66
35551;BME280;21655;46.056;13.616;2023-03-01T00:23:40;100946.13;;;6.02;99.33
35551;BME280;21655;46.056;13.616;2023-03-01T00:26:08;100919.66;;;6.11;97.90
35551;BME280;21655;46.056;13.616;2023-03-01T00:28:34;100918.22;;;6.16;97.10
35551;BME280;21655;46.056;13.616;2023-03-01T00:31:12;100926.66;;;6.24;96.54
35551;BME280;21655;46.056;13.616;2023-03-01T00:33:38;100925.47;;;6.17;97.79
35551;BME280;21655;46.056;13.616;2023-03-01T00:36:04;100922.44;;;6.20;98.04
35551;BME280;21655;46.056;13.616;2023-03-01T00:38:30;100916.53;;;6.25;97.16
35551;BME280;21655;46.056;13.616;2023-03-01T00:40:55;100910.09;;;6.15;96.87
35551;BME280;21655;46.056;13.616;2023-03-01T00:43:27;100894.44;;;6.06;99.07
35551;BME280;21655;46.056;13.616;2023-03-01T00:45:53;100888.75;;;6.07;99.41
35551;BME280;21655;46.056;13.616;2023-03-01T00:48:18;100887.91;;;6.07;100.00
35551;BME280;21655;46.056;13.616;2023-03-01T00:50:43;100910.88;;;6.26;99.96
35551;BME280;21655;46.056;13.616;2023-03-01T00:53:09;100901.31;;;6.30;98.04
35551;BME280;21655;46.056;13.616;2023-03-01T00:55:36;100876.34;;;6.22;98.86
35551;BME280;21655;46.056;13.616;2023-03-01T00:58:02;100892.56;;;6.16;100.00
35551;BME280;21655;46.056;13.616;2023-03-01T01:00:27;100876.91;;;6.07;100.00
35551;BME280;21655;46.056;13.616;2023-03-01T01:02:53;100883.88;;;6.11;100.00
35551;BME280;21655;46.056;13.616;2023-03-01T01:05:19;100889.50;;;6.09;100.00
35551;BME280;21655;46.056;13.616;2023-03-01T01:07:46;100881.56;;;6.16;100.00
35551;BME280;21655;46.056;13.616;2023-03-01T01:10:11;100875.31;;;6.14;100.00
35551;BME280;21655;46.056;13.616;2023-03-01T01:12:43;100859.09;;;6.11;100.00
35551;BME280;21655;46.056;13.616;2023-03-01T01:15:08;100842.44;;;6.12;100.00
35551;BME280;21655;46.056;13.616;2023-03-01T01:17:37;100832.44;;;6.11;100.00
35551;BME280;21655;46.056;13.616;2023-03-01T01:20:03;100848.81;;;6.13;100.00
35551;BME280;21655;46.056;13.616;2023-03-01T01:22:28;100844.31;;;6.12;100.00
35551;BME280;21655;46.056;13.616;2023-03-01T01:24:54;100838.50;;;6.15;100.00
35551;BME280;21655;46.056;13.616;2023-03-01T01:27:19;100850.41;;;6.15;100.00
35551;BME280;21655;46.056;13.616;2023-03-01T01:29:45;100840.00;;;6.19;100.00
35551;BME280;21655;46.056;13.616;2023-03-01T01:32:10;100837.25;;;6.19;100.00
35551;BME280;21655;46.056;13.616;2023-03-01T01:34:35;100835.19;;;6.11;100.00
35551;BME280;21655;46.056;13.616;2023-03-01T01:37:01;100817.78;;;6.11;100.00
35551;BME280;21655;46.056;13.616;2023-03-01T01:39:28;100823.19;;;6.22;100.00
35551;BME280;21655;46.056;13.616;2023-03-01T01:41:53;100808.97;;;6.17;100.00
35551;BME280;21655;46.056;13.616;2023-03-01T01:46:53;100816.78;;;6.12;100.00
35551;BME280;21655;46.056;13.616;2023-03-01T01:49:44;100831.59;;;6.20;100.00
35551;BME280;21655;46.056;13.616;2023-03-01T01:52:26;100822.31;;;6.21;100.00
35551;BME280;21655;46.056;13.616;2023-03-01T01:57:39;100809.44;;;6.22;100.00
35551;BME280;21655;46.056;13.616;2023-03-01T02:00:15;100802.63;;;6.26;100.00
35551;BME280;21655;46.056;13.616;2023-03-01T02:02:43;100812.91;;;6.24;100.00
35551;BME280;21655;46.056;13.616;2023-03-01T02:05:24;100793.19;;;6.19;100.00
35551;BME280;21655;46.056;13.616;2023-03-01T02:07:51;100776.94;;;6.25;100.00
35551;BME280;21655;46.056;13.616;2023-03-01T02:10:17;100787.84;;;6.27;100.00
35551;BME280;21655;46.056;13.616;2023-03-01T02:12:43;100769.72;;;6.24;100.00
35551;BME280;21655;46.056;13.616;2023-03-01T02:15:09;100775.22;;;6.24;100.00
35551;BME280;21655;46.056;13.616;2023-03-01T02:17:35;100775.22;;;6.24;100.00
35551;BME280;21655;46.056;13.616;2023-03-01T02:20:14;100751.75;;;6.20;100.00
35551;BME280;21655;46.056;13.616;2023-03-01T02:22:43;100764.19;;;6.15;100.00
35551;BME280;21655;46.056;13.616;2023-03-01T02:25:44;100758.97;;;6.12;100.00
35551;BME280;21655;46.056;13.616;2023-03-01T02:30:42;100764.66;;;6.10;100.00
35551;BME280;21655;46.056;13.616;2023-03-01T02:33:29;100769.38;;;6.08;100.00
35551;BME280;21655;46.056;13.616;2023-03-01T02:36:00;100765.78;;;6.08;100.00
35551;BME280;21655;46.056;13.616;2023-03-01T02:38:27;100758.97;;;6.02;100.00
35551;BME280;21655;46.056;13.616;2023-03-01T02:40:54;100761.41;;;5.96;100.00
35551;BME280;21655;46.056;13.616;2023-03-01T02:43:24;100752.31;;;5.95;100.00
35551;BME280;21655;46.056;13.616;2023-03-01T02:45:53;100744.91;;;5.96;100.00
35551;BME280;21655;46.056;13.616;2023-03-01T02:48:22;100740.13;;;5.98;100.00
35551;BME280;21655;46.056;13.616;2023-03-01T02:51:09;100738.25;;;6.08;100.00
35551;BME280;21655;46.056;13.616;2023-03-01T02:56:15;100733.78;;;6.07;100.00
35551;BME280;21655;46.056;13.616;2023-03-01T02:58:41;100715.53;;;6.06;100.00
35551;BME280;21655;46.056;13.616;2023-03-01T03:01:10;100722.59;;;6.08;100.00
35551;BME280;21655;46.056;13.616;2023-03-01T03:03:35;100732.34;;;6.12;100.00
35551;BME280;21655;46.056;13.616;2023-03-01T03:06:01;100722.47;;;6.19;100.00
35551;BME280;21655;46.056;13.616;2023-03-01T03:08:26;100739.88;;;6.20;100.00
35551;BME280;21655;46.056;13.616;2023-03-01T03:10:52;100713.38;;;6.28;100.00
35551;BME280;21655;46.056;13.616;2023-03-01T03:13:18;100703.78;;;6.23;100.00
35551;BME280;21655;46.056;13.616;2023-03-01T03:15:44;100732.19;;;6.23;100.00
35551;BME280;21655;46.056;13.616;2023-03-01T03:18:12;100698.00;;;6.16;100.00
35551;BME280;21655;46.056;13.616;2023-03-01T03:20:40;100698.59;;;6.10;100.00
35551;BME280;21655;46.056;13.616;2023-03-01T03:23:06;100687.69;;;6.09;100.00
35551;BME280;21655;46.056;13.616;2023-03-01T03:25:32;100712.19;;;6.21;100.00
35551;BME280;21655;46.056;13.616;2023-03-01T03:27:57;100711.88;;;6.24;100.00
35551;BME280;21655;46.056;13.616;2023-03-01T03:30:31;100681.59;;;6.24;100.00
35551;BME280;21655;46.056;13.616;2023-03-01T03:32:58;100686.69;;;6.29;100.00
35551;BME280;21655;46.056;13.616;2023-03-01T03:35:29;100702.63;;;6.25;100.00
35551;BME280;21655;46.056;13.616;2023-03-01T03:38:05;100703.38;;;6.27;100.00
35551;BME280;21655;46.056;13.616;2023-03-01T03:40:36;100696.13;;;6.26;100.00
35551;BME280;21655;46.056;13.616;2023-03-01T03:43:04;100710.63;;;6.19;100.00
35551;BME280;21655;46.056;13.616;2023-03-01T03:45:30;100711.16;;;6.22;100.00
35551;BME280;21655;46.056;13.616;2023-03-01T03:47:59;100714.50;;;6.26;100.00
35551;BME280;21655;46.056;13.616;2023-03-01T03:50:25;100712.78;;;6.25;100.00
35551;BME280;21655;46.056;13.616;2023-03-01T03:52:50;100704.66;;;6.23;100.00
35551;BME280;21655;46.056;13.616;2023-03-01T03:55:16;100701.47;;;6.18;100.00
35551;BME280;21655;46.056;13.616;2023-03-01T03:57:45;100699.44;;;6.20;100.00
35551;BME280;21655;46.056;13.616;2023-03-01T04:00:17;100719.59;;;6.30;100.00
35551;BME280;21655;46.056;13.616;2023-03-01T04:02:44;100689.59;;;6.37;100.00
35551;BME280;21655;46.056;13.616;2023-03-01T04:05:12;100708.41;;;6.32;100.00
35551;BME280;21655;46.056;13.616;2023-03-01T04:07:38;100683.94;;;6.29;100.00
35551;BME280;21655;46.056;13.616;2023-03-01T04:10:06;100678.13;;;6.32;100.00
35551;BME280;21655;46.056;13.616;2023-03-01T04:12:32;100664.94;;;6.35;100.00
35551;BME280;21655;46.056;13.616;2023-03-01T04:15:03;100676.56;;;6.29;100.00
35551;BME280;21655;46.056;13.616;2023-03-01T04:17:41;100665.66;;;6.28;100.00
35551;BME280;21655;46.056;13.616;2023-03-01T04:20:15;100651.03;;;6.37;100.00
35551;BME280;21655;46.056;13.616;2023-03-01T04:22:51;100693.19;;;6.47;100.00
35551;BME280;21655;46.056;13.616;2023-03-01T04:25:17;100674.78;;;6.47;100.00
35551;BME280;21655;46.056;13.616;2023-03-01T04:27:43;100671.59;;;6.42;100.00
35551;BME280;21655;46.056;13.616;2023-03-01T04:30:09;100680.88;;;6.51;100.00
35551;BME280;21655;46.056;13.616;2023-03-01T04:32:35;100694.78;;;6.49;100.00
35551;BME280;21655;46.056;13.616;2023-03-01T04:35:00;100697.84;;;6.46;100.00
35551;BME280;21655;46.056;13.616;2023-03-01T04:37:26;100674.22;;;6.44;100.00
35551;BME280;21655;46.056;13.616;2023-03-01T04:39:52;100683.06;;;6.47;100.00
35551;BME280;21655;46.056;13.616;2023-03-01T04:42:18;100680.00;;;6.50;100.00
35551;BME280;21655;46.056;13.616;2023-03-01T04:44:44;100674.50;;;6.50;100.00
35551;BME280;21655;46.056;13.616;2023-03-01T04:47:09;100714.94;;;6.40;100.00
35551;BME280;21655;46.056;13.616;2023-03-01T04:49:35;100710.16;;;6.42;100.00
35551;BME280;21655;46.056;13.616;2023-03-01T04:52:01;100707.56;;;6.41;100.00
35551;BME280;21655;46.056;13.616;2023-03-01T04:54:31;100680.16;;;6.39;100.00
35551;BME280;21655;46.056;13.616;2023-03-01T04:56:57;100698.28;;;6.42;100.00
35551;BME280;21655;46.056;13.616;2023-03-01T04:59:23;100715.38;;;6.45;100.00
35551;BME280;21655;46.056;13.616;2023-03-01T05:01:53;100689.28;;;6.40;100.00
35551;BME280;21655;46.056;13.616;2023-03-01T05:04:23;100672.19;;;6.36;100.00
35551;BME280;21655;46.056;13.616;2023-03-01T05:06:49;100669.16;;;6.30;100.00
35551;BME280;21655;46.056;13.616;2023-03-01T05:09:15;100676.84;;;6.36;100.00
35551;BME280;21655;46.056;13.616;2023-03-01T05:11:41;100685.66;;;6.39;100.00
35551;BME280;21655;46.056;13.616;2023-03-01T05:14:08;100692.91;;;6.40;100.00
35551;BME280;21655;46.056;13.616;2023-03-01T05:16:35;100696.97;;;6.46;100.00
35551;BME280;21655;46.056;13.616;2023-03-01T05:19:02;100677.25;;;6.41;100.00
35551;BME280;21655;46.056;13.616;2023-03-01T05:21:37;100699.44;;;6.39;100.00
35551;BME280;21655;46.056;13.616;2023-03-01T05:24:23;100680.03;;;6.31;100.00
35551;BME280;21655;46.056;13.616;2023-03-01T05:26:50;100686.97;;;6.26;100.00
35551;BME280;21655;46.056;13.616;2023-03-01T05:29:20;100684.22;;;6.26;100.00
35551;BME280;21655;46.056;13.616;2023-03-01T05:31:57;100686.25;;;6.24;100.00
35551;BME280;21655;46.056;13.616;2023-03-01T05:34:32;100668.13;;;6.21;100.00
35551;BME280;21655;46.056;13.616;2023-03-01T05:36:58;100659.03;;;6.21;100.00
35551;BME280;21655;46.056;13.616;2023-03-01T05:39:25;100658.84;;;6.22;100.00
35551;BME280;21655;46.056;13.616;2023-03-01T05:41:55;100656.81;;;6.34;100.00
35551;BME280;21655;46.056;13.616;2023-03-01T05:44:21;100671.59;;;6.42;100.00
35551;BME280;21655;46.056;13.616;2023-03-01T05:46:47;100634.78;;;6.34;100.00
35551;BME280;21655;46.056;13.616;2023-03-01T05:49:13;100658.72;;;6.33;100.00
35551;BME280;21655;46.056;13.616;2023-03-01T05:51:43;100648.41;;;6.35;100.00
35551;BME280;21655;46.056;13.616;2023-03-01T05:54:12;100646.97;;;6.31;100.00
35551;BME280;21655;46.056;13.616;2023-03-01T05:56:37;100641.19;;;6.25;100.00
35551;BME280;21655;46.056;13.616;2023-03-01T05:59:04;100635.38;;;6.28;100.00
35551;BME280;21655;46.056;13.616;2023-03-01T06:01:34;100640.19;;;6.26;100.00
35551;BME280;21655;46.056;13.616;2023-03-01T06:04:00;100659.44;;;6.26;100.00
35551;BME280;21655;46.056;13.616;2023-03-01T06:06:26;100647.72;;;6.24;100.00
35551;BME280;21655;46.056;13.616;2023-03-01T06:08:52;100670.03;;;6.40;100.00
35551;BME280;21655;46.056;13.616;2023-03-01T06:11:19;100670.16;;;6.29;100.00
35551;BME280;21655;46.056;13.616;2023-03-01T06:13:45;100682.50;;;6.25;100.00
35551;BME280;21655;46.056;13.616;2023-03-01T06:16:12;100665.09;;;6.24;100.00
35551;BME280;21655;46.056;13.616;2023-03-01T06:18:38;100649.44;;;6.25;100.00
35551;BME280;21655;46.056;13.616;2023-03-01T06:21:04;100652.31;;;6.33;100.00
35551;BME280;21655;46.056;13.616;2023-03-01T06:23:30;100625.25;;;6.38;100.00
35551;BME280;21655;46.056;13.616;2023-03-01T06:25:56;100651.91;;;6.37;100.00
35551;BME280;21655;46.056;13.616;2023-03-01T06:28:21;100682.06;;;6.39;100.00
35551;BME280;21655;46.056;13.616;2023-03-01T06:30:47;100675.09;;;6.44;100.00
35551;BME280;21655;46.056;13.616;2023-03-01T06:33:13;100674.78;;;6.47;100.00
35551;BME280;21655;46.056;13.616;2023-03-01T06:35:39;100672.91;;;6.48;100.00
35551;BME280;21655;46.056;13.616;2023-03-01T06:38:05;100672.47;;;6.52;100.00
35551;BME280;21655;46.056;13.616;2023-03-01T06:40:31;100636.38;;;6.46;100.00
35551;BME280;21655;46.056;13.616;2023-03-01T06:42:57;100662.44;;;6.61;100.00
35551;BME280;21655;46.056;13.616;2023-03-01T06:45:23;100665.38;;;6.59;100.00
35551;BME280;21655;46.056;13.616;2023-03-01T06:47:49;100668.38;;;6.56;100.00
35551;BME280;21655;46.056;13.616;2023-03-01T06:50:16;100671.72;;;6.60;100.00
35551;BME280;21655;46.056;13.616;2023-03-01T06:52:43;100676.66;;;6.56;100.00
35551;BME280;21655;46.056;13.616;2023-03-01T06:55:11;100653.03;;;6.54;100.00
35551;BME280;21655;46.056;13.616;2023-03-01T06:57:37;100667.09;;;6.60;100.00
35551;BME280;21655;46.056;13.616;2023-03-01T07:00:03;100695.66;;;6.69;100.00
35551;BME280;21655;46.056;13.616;2023-03-01T07:02:29;100685.31;;;6.80;100.00
35551;BME280;21655;46.056;13.616;2023-03-01T07:04:55;100680.22;;;6.85;100.00
35551;BME280;21655;46.056;13.616;2023-03-01T07:07:20;100680.25;;;6.76;100.00
35551;BME280;21655;46.056;13.616;2023-03-01T07:09:46;100671.97;;;6.76;100.00
35551;BME280;21655;46.056;13.616;2023-03-01T07:12:13;100650.53;;;6.70;100.00
35551;BME280;21655;46.056;13.616;2023-03-01T07:14:39;100679.66;;;6.72;100.00
35551;BME280;21655;46.056;13.616;2023-03-01T07:17:04;100679.69;;;6.63;100.00
35551;BME280;21655;46.056;13.616;2023-03-01T07:19:29;100668.69;;;6.53;100.00
35551;BME280;21655;46.056;13.616;2023-03-01T07:21:55;100698.97;;;6.53;100.00
35551;BME280;21655;46.056;13.616;2023-03-01T07:24:21;100670.31;;;6.46;100.00
35551;BME280;21655;46.056;13.616;2023-03-01T07:26:51;100705.69;;;6.51;100.00
35551;BME280;21655;46.056;13.616;2023-03-01T07:29:17;100671.84;;;6.58;100.00
35551;BME280;21655;46.056;13.616;2023-03-01T07:31:42;100663.44;;;6.69;100.00
35551;BME280;21655;46.056;13.616;2023-03-01T07:34:08;100691.00;;;6.69;100.00
35551;BME280;21655;46.056;13.616;2023-03-01T07:36:33;100667.50;;;6.65;100.00
35551;BME280;21655;46.056;13.616;2023-03-01T07:38:59;100685.66;;;6.68;100.00
35551;BME280;21655;46.056;13.616;2023-03-01T07:41:27;100672.41;;;6.81;100.00
35551;BME280;21655;46.056;13.616;2023-03-01T07:43:53;100681.09;;;6.86;100.00
35551;BME280;21655;46.056;13.616;2023-03-01T07:46:18;100684.25;;;7.00;100.00
35551;BME280;21655;46.056;13.616;2023-03-01T07:48:44;100684.34;;;7.08;100.00
35551;BME280;21655;46.056;13.616;2023-03-01T07:51:09;100684.06;;;7.11;100.00
35551;BME280;21655;46.056;13.616;2023-03-01T07:53:35;100676.06;;;7.18;100.00
35551;BME280;21655;46.056;13.616;2023-03-01T07:56:07;100689.94;;;7.26;100.00
35551;BME280;21655;46.056;13.616;2023-03-01T07:58:39;100681.28;;;7.21;100.00
35551;BME280;21655;46.056;13.616;2023-03-01T08:01:06;100684.16;;;7.19;100.00
35551;BME280;21655;46.056;13.616;2023-03-01T08:03:33;100663.84;;;7.20;100.00
35551;BME280;21655;46.056;13.616;2023-03-01T08:06:04;100662.50;;;7.24;100.00
35551;BME280;21655;46.056;13.616;2023-03-01T08:08:30;100665.78;;;7.10;100.00
35551;BME280;21655;46.056;13.616;2023-03-01T08:10:57;100675.91;;;7.19;100.00
35551;BME280;21655;46.056;13.616;2023-03-01T08:13:22;100668.78;;;7.26;99.94
35551;BME280;21655;46.056;13.616;2023-03-01T08:15:49;100658.66;;;7.44;98.48
35551;BME280;21655;46.056;13.616;2023-03-01T08:18:16;100651.53;;;7.68;95.91
35551;BME280;21655;46.056;13.616;2023-03-01T08:20:41;100668.91;;;7.78;93.42
35551;BME280;21655;46.056;13.616;2023-03-01T08:23:07;100686.78;;;7.74;91.30
35551;BME280;21655;46.056;13.616;2023-03-01T08:25:32;100671.19;;;7.83;91.91
35551;BME280;21655;46.056;13.616;2023-03-01T08:27:57;100676.19;;;7.97;91.41
35551;BME280;21655;46.056;13.616;2023-03-01T08:30:23;100647.84;;;8.65;87.91
35551;BME280;21655;46.056;13.616;2023-03-01T08:32:49;100656.97;;;9.41;80.45
35551;BME280;21655;46.056;13.616;2023-03-01T08:35:15;100634.38;;;9.62;76.78
35551;BME280;21655;46.056;13.616;2023-03-01T08:37:41;100658.72;;;9.92;74.12
35551;BME280;21655;46.056;13.616;2023-03-01T08:40:06;100646.34;;;9.70;73.19
35551;BME280;21655;46.056;13.616;2023-03-01T08:42:33;100617.97;;;10.50;69.89
35551;BME280;21655;46.056;13.616;2023-03-01T08:44:58;100644.97;;;10.40;68.99
35551;BME280;21655;46.056;13.616;2023-03-01T08:47:24;100624.06;;;11.23;66.42
35551;BME280;21655;46.056;13.616;2023-03-01T08:49:50;100635.03;;;11.01;64.79
35551;BME280;21655;46.056;13.616;2023-03-01T08:52:15;100631.56;;;10.99;64.44
35551;BME280;21655;46.056;13.616;2023-03-01T08:54:41;100624.22;;;11.30;63.97
35551;BME280;21655;46.056;13.616;2023-03-01T08:57:06;100583.25;;;11.40;63.08
35551;BME280;21655;46.056;13.616;2023-03-01T08:59:32;100595.53;;;10.83;64.69
35551;BME280;21655;46.056;13.616;2023-03-01T09:02:03;100606.56;;;11.23;63.57
35551;BME280;21655;46.056;13.616;2023-03-01T09:04:28;100601.88;;;11.70;60.97
35551;BME280;21655;46.056;13.616;2023-03-01T09:06:54;100609.69;;;11.97;60.86
35551;BME280;21655;46.056;13.616;2023-03-01T09:09:20;100531.31;;;11.10;60.74
35551;BME280;21655;46.056;13.616;2023-03-01T09:11:45;100612.47;;;11.12;62.07
35551;BME280;21655;46.056;13.616;2023-03-01T09:14:12;100603.72;;;11.39;61.24
35551;BME280;21655;46.056;13.616;2023-03-01T09:16:38;100576.13;;;11.76;60.20
35551;BME280;21655;46.056;13.616;2023-03-01T09:19:05;100580.50;;;11.70;59.93
35551;BME280;21655;46.056;13.616;2023-03-01T09:21:30;100562.63;;;11.73;59.52
35551;BME280;21655;46.056;13.616;2023-03-01T09:23:57;100574.56;;;11.35;59.50
35551;BME280;21655;46.056;13.616;2023-03-01T09:26:23;100577.44;;;11.57;60.51
35551;BME280;21655;46.056;13.616;2023-03-01T09:28:52;100571.66;;;11.67;60.26
35551;BME280;21655;46.056;13.616;2023-03-01T09:31:20;100586.72;;;11.34;60.42
35551;BME280;21655;46.056;13.616;2023-03-01T09:33:47;100591.56;;;10.86;62.01
35551;BME280;21655;46.056;13.616;2023-03-01T09:36:16;100575.47;;;10.01;64.69
35551;BME280;21655;46.056;13.616;2023-03-01T09:38:42;100541.56;;;10.15;66.65
35551;BME280;21655;46.056;13.616;2023-03-01T09:46:51;100541.09;;;9.46;70.80
35551;BME280;21655;46.056;13.616;2023-03-01T09:49:20;100570.59;;;9.22;72.17
35551;BME280;21655;46.056;13.616;2023-03-01T09:51:59;100554.03;;;9.38;73.21
35551;BME280;21655;46.056;13.616;2023-03-01T09:54:26;100564.97;;;9.47;72.57
35551;BME280;21655;46.056;13.616;2023-03-01T10:02:42;100569.00;;;9.77;71.10
35551;BME280;21655;46.056;13.616;2023-03-01T10:05:29;100565.16;;;9.54;72.65
35551;BME280;21655;46.056;13.616;2023-03-01T10:10:46;100554.72;;;10.13;72.09
35551;BME280;21655;46.056;13.616;2023-03-01T10:13:21;100530.94;;;10.59;69.37
35551;BME280;21655;46.056;13.616;2023-03-01T10:16:09;100547.28;;;11.08;66.91
35551;BME280;21655;46.056;13.616;2023-03-01T10:18:36;100553.16;;;10.27;68.24
35551;BME280;21655;46.056;13.616;2023-03-01T10:21:13;100564.16;;;9.71;72.28
35551;BME280;21655;46.056;13.616;2023-03-01T10:23:40;100550.41;;;9.37;73.57
35551;BME280;21655;46.056;13.616;2023-03-01T10:31:28;100541.63;;;9.01;79.80
35551;BME280;21655;46.056;13.616;2023-03-01T10:34:04;100540.22;;;8.97;80.60
35551;BME280;21655;46.056;13.616;2023-03-01T10:36:33;100516.72;;;9.01;82.19
35551;BME280;21655;46.056;13.616;2023-03-01T10:39:03;100506.47;;;8.85;82.67
35551;BME280;21655;46.056;13.616;2023-03-01T10:41:44;100517.75;;;8.92;83.80
35551;BME280;21655;46.056;13.616;2023-03-01T10:47:00;100494.00;;;8.81;84.79
35551;BME280;21655;46.056;13.616;2023-03-01T10:49:26;100510.63;;;8.89;85.02
35551;BME280;21655;46.056;13.616;2023-03-01T10:51:53;100492.03;;;8.99;84.01
35551;BME280;21655;46.056;13.616;2023-03-01T10:54:22;100465.91;;;9.02;84.71
35551;BME280;21655;46.056;13.616;2023-03-01T10:56:55;100517.94;;;8.98;84.41
35551;BME280;21655;46.056;13.616;2023-03-01T11:02:25;100513.91;;;9.34;81.43
35551;BME280;21655;46.056;13.616;2023-03-01T11:05:17;100498.19;;;9.42;82.34
35551;BME280;21655;46.056;13.616;2023-03-01T11:07:57;100500.06;;;9.34;81.75
35551;BME280;21655;46.056;13.616;2023-03-01T11:10:31;100486.44;;;9.40;80.91
35551;BME280;21655;46.056;13.616;2023-03-01T11:13:17;100499.72;;;9.45;81.08
35551;BME280;21655;46.056;13.616;2023-03-01T11:15:44;100478.13;;;9.40;81.10
35551;BME280;21655;46.056;13.616;2023-03-01T11:18:23;100503.53;;;9.36;82.79
35551;BME280;21655;46.056;13.616;2023-03-01T11:20:51;100511.84;;;9.44;82.05
35551;BME280;21655;46.056;13.616;2023-03-01T11:23:18;100505.63;;;9.42;81.70
35551;BME280;21655;46.056;13.616;2023-03-01T11:25:54;100533.28;;;9.34;82.73
35551;BME280;21655;46.056;13.616;2023-03-01T11:28:20;100523.59;;;9.38;82.83
35551;BME280;21655;46.056;13.616;2023-03-01T11:35:57;100531.38;;;9.34;84.40
35551;BME280;21655;46.056;13.616;2023-03-01T11:38:27;100522.91;;;9.44;83.47
35551;BME280;21655;46.056;13.616;2023-03-01T11:41:02;100504.44;;;9.52;82.04
35551;BME280;21655;46.056;13.616;2023-03-01T11:47:03;100522.91;;;9.44;83.51
35551;BME280;21655;46.056;13.616;2023-03-01T11:49:43;100502.47;;;9.29;84.74
35551;BME280;21655;46.056;13.616;2023-03-01T12:00:38;100522.44;;;9.56;83.68
35551;BME280;21655;46.056;13.616;2023-03-01T12:03:38;100495.28;;;9.52;84.42
35551;BME280;21655;46.056;13.616;2023-03-01T12:12:08;100509.53;;;10.05;81.18
35551;BME280;21655;46.056;13.616;2023-03-01T12:15:11;100562.00;;;10.38;78.51
35551;BME280;21655;46.056;13.616;2023-03-01T12:17:57;100510.34;;;10.37;78.16
35551;BME280;21655;46.056;13.616;2023-03-01T12:20:34;100511.09;;;10.07;78.81
35551;BME280;21655;46.056;13.616;2023-03-01T12:25:48;100532.56;;;10.05;78.92
35551;BME280;21655;46.056;13.616;2023-03-01T12:39:44;100545.81;;;9.78;83.16
35551;BME280;21655;46.056;13.616;2023-03-01T12:47:49;100567.63;;;9.73;82.89
35551;BME280;21655;46.056;13.616;2023-03-01T12:50:32;100561.41;;;9.71;83.04
35551;BME280;21655;46.056;13.616;2023-03-01T12:53:01;100550.66;;;9.76;83.85
35551;BME280;21655;46.056;13.616;2023-03-01T12:55:37;100538.38;;;9.86;83.98
35551;BME280;21655;46.056;13.616;2023-03-01T13:03:48;100502.56;;;9.85;83.87
35551;BME280;21655;46.056;13.616;2023-03-01T13:09:19;100499.44;;;9.72;83.01
35551;BME280;21655;46.056;13.616;2023-03-01T13:11:48;100495.47;;;9.74;84.58
35551;BME280;21655;46.056;13.616;2023-03-01T13:16:46;100495.09;;;9.69;84.71
35551;BME280;21655;46.056;13.616;2023-03-01T13:19:21;100483.19;;;9.69;85.02
35551;BME280;21655;46.056;13.616;2023-03-01T13:21:49;100476.25;;;9.65;85.34
35551;BME280;21655;46.056;13.616;2023-03-01T13:24:29;100471.75;;;9.64;85.92
35551;BME280;21655;46.056;13.616;2023-03-01T13:32:35;100484.72;;;9.63;85.88
35551;BME280;21655;46.056;13.616;2023-03-01T13:35:42;100453.41;;;9.71;85.27
35551;BME280;21655;46.056;13.616;2023-03-01T13:38:37;100463.44;;;9.80;84.43
35551;BME280;21655;46.056;13.616;2023-03-01T13:41:03;100455.13;;;9.80;84.33
35551;BME280;21655;46.056;13.616;2023-03-01T13:43:43;100458.44;;;9.83;84.40
35551;BME280;21655;46.056;13.616;2023-03-01T13:46:16;100443.53;;;9.84;84.15
35551;BME280;21655;46.056;13.616;2023-03-01T13:48:45;100454.09;;;9.89;84.16
35551;BME280;21655;46.056;13.616;2023-03-01T13:51:13;100445.63;;;9.90;83.99
35551;BME280;21655;46.056;13.616;2023-03-01T13:53:43;100432.47;;;9.92;84.64
35551;BME280;21655;46.056;13.616;2023-03-01T13:56:24;100436.28;;;9.91;84.72
35551;BME280;21655;46.056;13.616;2023-03-01T13:58:58;100441.63;;;10.01;84.54
35551;BME280;21655;46.056;13.616;2023-03-01T14:01:42;100423.13;;;10.01;85.19
35551;BME280;21655;46.056;13.616;2023-03-01T14:04:30;100425.19;;;9.99;85.39
35551;BME280;21655;46.056;13.616;2023-03-01T14:07:20;100422.41;;;9.99;85.24
35551;BME280;21655;46.056;13.616;2023-03-01T14:09:52;100408.25;;;10.02;85.22
35551;BME280;21655;46.056;13.616;2023-03-01T14:20:28;100423.81;;;10.11;84.13
35551;BME280;21655;46.056;13.616;2023-03-01T14:23:01;100407.34;;;10.10;84.40
35551;BME280;21655;46.056;13.616;2023-03-01T14:25:30;100426.38;;;10.13;84.61
35551;BME280;21655;46.056;13.616;2023-03-01T14:28:19;100413.78;;;10.10;84.69
35551;BME280;21655;46.056;13.616;2023-03-01T14:30:55;100409.97;;;10.11;84.33
35551;BME280;21655;46.056;13.616;2023-03-01T14:33:22;100400.78;;;10.11;83.86
35551;BME280;21655;46.056;13.616;2023-03-01T14:38:23;100409.63;;;10.06;85.71
35551;BME280;21655;46.056;13.616;2023-03-01T14:40:58;100408.59;;;10.07;85.16